createdAt,value
2018-10-01T00:01:53.790Z,11.60
2018-10-01T00:04:21.430Z,11.60
2018-10-01T00:06:48.992Z,11.60
2018-10-01T00:09:16.847Z,11.50
2018-10-01T00:11:44.441Z,11.50
2018-10-01T00:14:12.054Z,11.50
2018-10-01T00:16:39.651Z,11.50
2018-10-01T00:19:13.105Z,11.50
2018-10-01T00:21:46.786Z,11.50
2018-10-01T00:24:14.303Z,11.50
2018-10-01T00:26:41.887Z,11.50
2018-10-01T00:29:09.803Z,11.50
2018-10-01T00:31:37.344Z,11.50
2018-10-01T00:34:04.994Z,11.40
2018-10-01T00:36:33.105Z,11.50
2018-10-01T00:39:00.650Z,11.50
2018-10-01T00:41:28.214Z,11.50
2018-10-01T00:43:55.905Z,11.40
2018-10-01T00:46:23.506Z,11.40
2018-10-01T00:48:51.083Z,11.40
2018-10-01T00:51:19.102Z,11.40
2018-10-01T00:53:46.690Z,11.40
2018-10-01T00:56:14.205Z,11.40
2018-10-01T00:58:41.996Z,11.30
2018-10-01T01:01:09.621Z,11.30
2018-10-01T01:03:37.456Z,11.30
2018-10-01T01:06:05.018Z,11.30
2018-10-01T01:08:32.573Z,11.20
2018-10-01T01:11:00.295Z,11.20
2018-10-01T01:13:27.899Z,11.20
2018-10-01T01:15:55.436Z,11.10
2018-10-01T01:18:23.169Z,11.10
2018-10-01T01:20:50.854Z,11.00
2018-10-01T01:23:18.482Z,11.00
2018-10-01T01:25:46.330Z,10.90
2018-10-01T01:28:13.882Z,10.90
2018-10-01T01:30:41.421Z,10.90
2018-10-01T01:33:09.240Z,10.80
2018-10-01T01:35:36.808Z,10.80
2018-10-01T01:38:05.234Z,10.80
2018-10-01T01:40:33.111Z,10.80
2018-10-01T01:43:00.922Z,10.70
2018-10-01T01:45:28.474Z,10.70
2018-10-01T01:48:02.260Z,10.70
2018-10-01T01:50:29.811Z,10.70
2018-10-01T01:52:57.334Z,10.70
2018-10-01T01:55:25.311Z,10.70
2018-10-01T01:57:52.914Z,10.60
2018-10-01T02:00:20.515Z,10.60
2018-10-01T02:02:48.306Z,10.60
2018-10-01T02:05:15.863Z,10.60
2018-10-01T02:07:43.461Z,10.50
2018-10-01T02:10:11.318Z,10.50
2018-10-01T02:12:38.919Z,10.50
2018-10-01T02:15:06.746Z,10.50
2018-10-01T02:17:34.340Z,10.40
2018-10-01T02:20:01.986Z,10.40
2018-10-01T02:22:29.844Z,10.40
2018-10-01T02:24:57.418Z,10.40
2018-10-01T02:27:24.988Z,10.40
2018-10-01T02:29:52.964Z,10.30
2018-10-01T02:32:20.516Z,10.30
2018-10-01T02:34:48.051Z,10.30
2018-10-01T02:37:15.783Z,10.30
2018-10-01T02:39:43.370Z,10.30
2018-10-01T02:42:10.948Z,10.20
2018-10-01T02:44:38.872Z,10.20
2018-10-01T02:47:06.576Z,10.20
2018-10-01T02:49:34.131Z,10.20
2018-10-01T02:52:07.899Z,10.10
2018-10-01T02:54:35.447Z,10.10
2018-10-01T02:57:03.031Z,10.00
2018-10-01T02:59:30.811Z,10.00
2018-10-01T03:01:58.391Z,10.00
2018-10-01T03:04:26.615Z,9.90
2018-10-01T03:06:54.422Z,9.90
2018-10-01T03:09:21.978Z,9.90
2018-10-01T03:11:49.466Z,9.80
2018-10-01T03:14:17.437Z,9.80
2018-10-01T03:16:45.027Z,9.80
2018-10-01T03:19:12.710Z,9.70
2018-10-01T03:21:40.631Z,9.70
2018-10-01T03:24:08.275Z,9.70
2018-10-01T03:26:35.834Z,9.70
2018-10-01T03:29:03.570Z,9.70
2018-10-01T03:31:31.113Z,9.60
2018-10-01T03:33:58.709Z,9.60
2018-10-01T03:36:26.951Z,9.60
2018-10-01T03:38:54.750Z,9.60
2018-10-01T03:41:22.343Z,9.60
2018-10-01T03:43:50.242Z,9.70
2018-10-01T03:46:17.874Z,9.70
2018-10-01T03:48:46.445Z,9.70
2018-10-01T03:51:14.574Z,9.70
2018-10-01T03:53:42.152Z,9.70
2018-10-01T03:56:10.229Z,9.70
2018-10-01T03:58:37.870Z,9.70
2018-10-01T04:01:05.643Z,9.70
2018-10-01T04:03:33.252Z,9.70
2018-10-01T04:06:00.806Z,9.70
2018-10-01T04:08:28.163Z,9.70
2018-10-01T04:10:55.763Z,9.70
2018-10-01T04:13:23.327Z,9.70
2018-10-01T04:15:50.858Z,9.60
2018-10-01T04:18:18.462Z,9.60
2018-10-01T04:20:46.007Z,9.60
2018-10-01T04:23:13.557Z,9.60
2018-10-01T04:25:41.409Z,9.70
2018-10-01T04:28:08.995Z,9.70
2018-10-01T04:30:36.548Z,9.70
2018-10-01T04:33:04.419Z,9.80
2018-10-01T04:35:32.001Z,9.80
2018-10-01T04:37:59.578Z,9.90
2018-10-01T04:40:27.542Z,9.90
2018-10-01T04:42:55.051Z,9.90
2018-10-01T04:45:22.732Z,9.90
2018-10-01T04:47:50.554Z,10.00
2018-10-01T04:50:18.120Z,10.00
2018-10-01T04:52:45.674Z,10.10
2018-10-01T04:55:13.385Z,10.10
2018-10-01T04:57:42.131Z,10.10
2018-10-01T05:00:10.540Z,10.10
2018-10-01T05:02:38.137Z,10.10
2018-10-01T05:05:06.157Z,10.20
2018-10-01T05:07:33.679Z,10.10
2018-10-01T05:10:01.313Z,10.20
2018-10-01T05:12:29.097Z,10.20
2018-10-01T05:14:56.719Z,10.30
2018-10-01T05:17:24.204Z,10.30
2018-10-01T05:19:51.787Z,10.30
2018-10-01T05:22:19.546Z,10.40
2018-10-01T05:24:47.082Z,10.40
2018-10-01T05:27:15.081Z,10.40
2018-10-01T05:29:42.530Z,10.50
2018-10-01T05:32:10.136Z,10.50
2018-10-01T05:34:38.135Z,10.60
2018-10-01T05:37:05.969Z,10.60
2018-10-01T05:39:33.525Z,10.60
2018-10-01T05:42:01.352Z,10.70
2018-10-01T05:44:28.927Z,10.70
2018-10-01T05:46:56.478Z,10.80
2018-10-01T05:49:24.201Z,10.80
2018-10-01T05:51:51.731Z,10.90
2018-10-01T05:54:19.449Z,10.90
2018-10-01T05:56:47.238Z,10.90
2018-10-01T05:59:14.823Z,11.00
2018-10-01T06:01:42.410Z,11.00
2018-10-01T06:04:10.355Z,11.10
2018-10-01T06:06:37.880Z,11.10
2018-10-01T06:09:08.327Z,11.20
2018-10-01T06:11:36.610Z,11.20
2018-10-01T06:14:04.148Z,11.20
2018-10-01T06:16:31.583Z,11.30
2018-10-01T06:18:59.442Z,11.30
2018-10-01T06:21:26.985Z,11.40
2018-10-01T06:23:54.552Z,11.40
2018-10-01T06:26:22.346Z,11.40
2018-10-01T06:28:49.922Z,11.50
2018-10-01T06:31:17.481Z,11.50
2018-10-01T06:33:45.458Z,11.60
2018-10-01T06:36:13.089Z,11.60
2018-10-01T06:38:40.606Z,11.70
2018-10-01T06:41:08.490Z,11.70
2018-10-01T06:43:36.028Z,11.80
2018-10-01T06:46:08.564Z,11.80
2018-10-01T06:48:36.110Z,11.80
2018-10-01T06:51:07.484Z,11.90
2018-10-01T06:53:35.343Z,12.00
2018-10-01T06:56:07.986Z,12.00
2018-10-01T06:58:35.843Z,12.10
2018-10-01T07:01:10.558Z,12.20
2018-10-01T07:03:38.449Z,12.20
2018-10-01T07:06:07.722Z,12.30
2018-10-01T07:08:36.542Z,12.40
2018-10-01T07:11:08.671Z,12.50
2018-10-01T07:13:36.446Z,12.60
2018-10-01T07:16:10.870Z,12.70
2018-10-01T07:18:38.510Z,12.80
2018-10-01T07:21:08.687Z,12.90
2018-10-01T07:23:36.552Z,13.00
2018-10-01T07:26:09.562Z,13.10
2018-10-01T07:28:37.726Z,13.20
2018-10-01T07:31:12.570Z,13.30
2018-10-01T07:33:40.737Z,13.50
2018-10-01T07:36:10.625Z,13.60
2018-10-01T07:38:38.274Z,13.70
2018-10-01T07:41:08.353Z,13.80
2018-10-01T07:43:35.913Z,13.90
2018-10-01T07:46:08.031Z,14.00
2018-10-01T07:48:35.591Z,14.20
2018-10-01T07:51:08.775Z,14.30
2018-10-01T07:53:36.282Z,14.40
2018-10-01T07:56:10.910Z,14.60
2018-10-01T07:58:38.455Z,14.70
2018-10-01T08:03:38.090Z,14.90
2018-10-01T08:06:08.366Z,15.10
2018-10-01T08:08:35.988Z,15.40
2018-10-01T08:11:03.502Z,15.90
2018-10-01T08:13:30.939Z,16.40
2018-10-01T08:15:58.558Z,17.00
2018-10-01T08:18:26.110Z,17.70
2018-10-01T08:20:54.126Z,18.20
2018-10-01T08:23:21.676Z,18.80
2018-10-01T08:25:49.219Z,19.20
2018-10-01T08:28:17.389Z,19.60
2018-10-01T08:30:44.923Z,19.90
2018-10-01T08:33:12.502Z,20.10
2018-10-01T08:35:40.343Z,20.30
2018-10-01T08:38:08.014Z,20.40
2018-10-01T08:40:35.795Z,20.50
2018-10-01T08:43:03.369Z,20.50
2018-10-01T08:45:30.919Z,20.60
2018-10-01T08:47:58.898Z,20.50
2018-10-01T08:50:33.671Z,20.50
2018-10-01T08:53:37.755Z,20.50
2018-10-01T08:56:05.314Z,20.40
2018-10-01T08:58:32.902Z,20.30
2018-10-01T09:01:01.327Z,20.30
2018-10-01T09:03:28.863Z,20.10
2018-10-01T09:05:56.449Z,20.10
2018-10-01T09:08:24.110Z,20.00
2018-10-01T09:10:51.692Z,19.90
2018-10-01T09:13:19.552Z,19.80
2018-10-01T09:15:47.651Z,19.80
2018-10-01T09:18:15.243Z,19.80
2018-10-01T09:20:42.924Z,19.80
2018-10-01T09:23:10.678Z,19.90
2018-10-01T09:25:38.335Z,20.10
2018-10-01T09:28:05.905Z,20.20
2018-10-01T09:30:33.647Z,20.30
2018-10-01T09:33:01.234Z,20.50
2018-10-01T09:35:28.844Z,20.70
2018-10-01T09:37:56.441Z,20.90
2018-10-01T09:40:24.058Z,21.10
2018-10-01T09:42:51.574Z,21.20
2018-10-01T09:45:19.402Z,21.30
2018-10-01T09:47:47.265Z,21.40
2018-10-01T09:50:14.969Z,21.40
2018-10-01T09:52:43.065Z,21.40
2018-10-01T09:55:10.570Z,21.40
2018-10-01T09:57:38.158Z,21.30
2018-10-01T10:00:06.939Z,21.30
2018-10-01T10:02:34.572Z,21.20
2018-10-01T10:05:02.070Z,21.10
2018-10-01T10:07:29.638Z,21.00
2018-10-01T10:09:57.759Z,20.90
2018-10-01T10:12:25.320Z,20.80
2018-10-01T10:14:53.340Z,20.70
2018-10-01T10:17:21.380Z,20.60
2018-10-01T10:19:48.947Z,20.50
2018-10-01T10:22:16.552Z,20.30
2018-10-01T10:24:44.475Z,20.30
2018-10-01T10:27:12.081Z,20.20
2018-10-01T10:29:39.304Z,20.10
2018-10-01T10:32:07.219Z,20.10
2018-10-01T10:34:34.802Z,20.00
2018-10-01T10:37:02.834Z,19.90
2018-10-01T10:39:30.449Z,19.90
2018-10-01T10:41:58.151Z,19.90
2018-10-01T10:44:25.958Z,19.80
2018-10-01T10:46:53.488Z,19.70
2018-10-01T10:49:21.078Z,19.70
2018-10-01T10:51:48.915Z,19.70
2018-10-01T10:54:16.522Z,19.60
2018-10-01T10:56:44.070Z,19.60
2018-10-01T10:59:11.994Z,19.60
2018-10-01T11:01:40.247Z,19.60
2018-10-01T11:04:07.780Z,19.60
2018-10-01T11:06:35.847Z,19.50
2018-10-01T11:09:05.350Z,19.50
2018-10-01T11:11:32.932Z,19.60
2018-10-01T11:14:01.166Z,19.60
2018-10-01T11:16:28.632Z,19.60
2018-10-01T11:18:56.434Z,19.60
2018-10-01T11:21:24.153Z,19.60
2018-10-01T11:23:51.643Z,19.60
2018-10-01T11:26:19.466Z,19.60
2018-10-01T11:28:47.073Z,19.60
2018-10-01T11:31:14.951Z,19.60
2018-10-01T11:33:42.932Z,19.50
2018-10-01T11:36:11.420Z,19.50
2018-10-01T11:38:39.260Z,19.40
2018-10-01T11:41:07.408Z,19.40
2018-10-01T11:43:34.955Z,19.40
2018-10-01T11:46:02.524Z,19.40
2018-10-01T11:50:57.604Z,19.40
2018-10-01T11:53:25.136Z,19.40
2018-10-01T11:55:52.930Z,19.40
2018-10-01T11:58:20.519Z,19.40
2018-10-01T12:00:48.078Z,19.40
2018-10-01T12:05:42.974Z,19.40
2018-10-01T12:08:10.536Z,19.40
2018-10-01T12:10:38.349Z,19.50
2018-10-01T12:13:06.941Z,19.50
2018-10-01T12:15:34.490Z,19.40
2018-10-01T12:18:02.187Z,19.40
2018-10-01T12:20:29.747Z,19.40
2018-10-01T12:22:57.283Z,19.40
2018-10-01T12:27:52.299Z,19.40
2018-10-01T12:30:19.864Z,19.40
2018-10-01T12:35:14.999Z,19.40
2018-10-01T12:37:42.437Z,19.40
2018-10-01T12:40:10.166Z,19.40
2018-10-01T12:42:37.786Z,19.40
2018-10-01T12:45:06.582Z,19.40
2018-10-01T12:47:34.303Z,19.40
2018-10-01T12:50:02.582Z,19.30
2018-10-01T12:52:30.103Z,19.40
2018-10-01T12:57:25.065Z,19.40
2018-10-01T12:59:52.582Z,19.40
2018-10-01T13:02:20.320Z,19.30
2018-10-01T13:04:47.879Z,19.40
2018-10-01T13:07:15.454Z,19.40
2018-10-01T13:09:43.206Z,19.40
2018-10-01T13:12:10.809Z,19.40
2018-10-01T13:14:38.258Z,19.40
2018-10-01T13:19:32.950Z,19.40
2018-10-01T13:22:00.485Z,19.40
2018-10-01T13:24:28.046Z,19.50
2018-10-01T13:29:23.014Z,19.40
2018-10-01T13:31:50.640Z,19.40
2018-10-01T13:34:18.363Z,19.40
2018-10-01T13:36:45.981Z,19.30
2018-10-01T13:39:13.479Z,19.30
2018-10-01T13:41:41.555Z,19.20
2018-10-01T13:44:09.356Z,19.20
2018-10-01T13:46:36.838Z,19.10
2018-10-01T13:49:04.651Z,19.00
2018-10-01T13:51:32.208Z,18.90
2018-10-01T13:53:59.869Z,18.80
2018-10-01T13:58:54.479Z,18.70
2018-10-01T14:01:22.586Z,18.60
2018-10-01T14:03:50.171Z,18.50
2018-10-01T14:06:17.792Z,18.40
2018-10-01T14:08:45.550Z,18.30
2018-10-01T14:11:13.119Z,18.20
2018-10-01T14:13:40.642Z,18.20
2018-10-01T14:21:02.659Z,18.00
2018-10-01T14:23:30.166Z,17.90
2018-10-01T14:26:00.611Z,17.90
2018-10-01T14:28:28.277Z,17.80
2018-10-01T14:30:55.979Z,17.80
2018-10-01T14:33:23.653Z,17.70
2018-10-01T14:35:51.295Z,17.60
2018-10-01T14:38:18.931Z,17.60
2018-10-01T14:40:46.595Z,17.50
2018-10-01T14:43:14.287Z,17.50
2018-10-01T14:45:41.799Z,17.50
2018-10-01T14:48:10.003Z,17.40
2018-10-01T14:50:38.491Z,17.40
2018-10-01T14:53:06.132Z,17.40
2018-10-01T14:55:34.245Z,17.40
2018-10-01T14:58:01.803Z,17.40
2018-10-01T15:00:29.585Z,17.40
2018-10-01T15:05:24.302Z,17.40
